Terminal Aerodrome Forecast
Issued by NWS Charleston, WV

Current Version | Previous Version | Graphics & Text | Print | Product List | Glossary On
Versions: 1 2 3 4 5 6 7 8 9 10 11 12 13 14 15 16 17 18 19 20 21 22 23 24 25 26 27 28 29 30 31 32 33
000
FTUS41 KRLX 250647 AAA
TAFEKN
TAF AMD
KEKN 250647Z 2507/2606 VRB03KT 3SM SHRA BR OVC035
      TEMPO 2507/2509 1/2SM FG OVC002
     FM250900 19008G14KT P6SM OVC025
      TEMPO 2509/2511 3SM SHRA OVC015
     FM251200 21012G18KT 3SM +SHRA BR OVC020
     FM251400 24014G20KT 4SM SHRA BR OVC015
     FM251700 26013KT P6SM OVC015
     FM252000 27011G18KT P6SM BKN040
     FM260000 27008KT P6SM SCT200=

USA.gov is the U.S. government's official web portal to all federal, state and local government web resources and services.